createdAt,value
2022-09-24T00:01:36.585Z,15.83
2022-09-24T00:04:06.519Z,15.64
2022-09-24T00:06:41.044Z,15.77
2022-09-24T00:09:07.754Z,15.71
2022-09-24T00:11:34.612Z,15.31
2022-09-24T00:14:01.572Z,15.17
2022-09-24T00:16:31.624Z,15.42
2022-09-24T00:18:59.515Z,15.37
2022-09-24T00:21:28.566Z,15.39
2022-09-24T00:23:58.000Z,15.18
2022-09-24T00:26:44.253Z,15.05
2022-09-24T00:29:13.777Z,15.04
2022-09-24T00:31:40.463Z,15.03
2022-09-24T00:34:07.470Z,15.24
2022-09-24T00:36:34.362Z,15.36
2022-09-24T00:39:01.310Z,15.47
2022-09-24T00:41:31.174Z,15.67
2022-09-24T00:43:58.895Z,15.53
2022-09-24T00:46:40.318Z,15.42
2022-09-24T00:49:16.689Z,15.38
2022-09-24T00:51:46.897Z,15.35
2022-09-24T00:54:19.744Z,15.23
2022-09-24T00:56:48.882Z,15.19
2022-09-24T00:59:18.958Z,15.11
2022-09-24T01:01:48.301Z,14.93
2022-09-24T01:04:18.023Z,14.76
2022-09-24T01:06:45.132Z,14.74
2022-09-24T01:09:13.631Z,14.75
2022-09-24T01:12:09.458Z,14.74
2022-09-24T01:15:03.325Z,14.73
2022-09-24T01:17:58.164Z,14.70
2022-09-24T01:20:35.324Z,14.72
2022-09-24T01:23:31.989Z,14.74
2022-09-24T01:26:37.187Z,14.63
2022-09-24T01:29:34.948Z,14.59
2022-09-24T01:32:13.902Z,14.57
2022-09-24T01:34:49.532Z,14.53
2022-09-24T01:37:21.432Z,14.60
2022-09-24T01:39:51.058Z,14.65
2022-09-24T01:42:20.186Z,14.58
2022-09-24T01:44:49.021Z,14.59
2022-09-24T01:47:28.866Z,14.87
2022-09-24T01:49:57.713Z,14.98
2022-09-24T01:52:31.877Z,14.97
2022-09-24T01:55:02.142Z,14.96
2022-09-24T01:57:34.172Z,15.01
2022-09-24T02:00:13.714Z,14.75
2022-09-24T02:03:11.632Z,14.51
2022-09-24T02:05:46.783Z,14.33
2022-09-24T02:08:26.762Z,14.12
2022-09-24T02:11:05.486Z,14.15
2022-09-24T02:13:40.105Z,14.19
2022-09-24T02:16:11.838Z,14.25
2022-09-24T02:18:42.205Z,14.20
2022-09-24T02:21:15.556Z,14.18
2022-09-24T02:23:51.102Z,14.23
2022-09-24T02:26:17.762Z,14.22
2022-09-24T02:28:45.566Z,14.21
2022-09-24T02:31:19.940Z,14.25
2022-09-24T02:34:08.732Z,14.25
2022-09-24T02:36:36.566Z,14.15
2022-09-24T02:39:03.286Z,14.07
2022-09-24T02:41:31.217Z,13.96
2022-09-24T02:43:58.203Z,14.06
2022-09-24T02:46:24.813Z,14.02
2022-09-24T02:48:51.533Z,14.11
2022-09-24T02:51:18.117Z,14.10
2022-09-24T02:53:44.776Z,13.98
2022-09-24T02:56:11.651Z,13.90
2022-09-24T02:58:38.699Z,14.06
2022-09-24T03:01:06.018Z,13.95
2022-09-24T03:03:32.936Z,13.86
2022-09-24T03:05:59.755Z,13.77
2022-09-24T03:08:27.063Z,13.76
2022-09-24T03:10:55.946Z,13.81
2022-09-24T03:13:23.305Z,13.79
2022-09-24T03:15:50.038Z,13.84
2022-09-24T03:18:16.858Z,13.86
2022-09-24T03:20:43.567Z,13.70
2022-09-24T03:23:11.290Z,13.74
2022-09-24T03:25:37.989Z,13.69
2022-09-24T03:28:04.582Z,13.68
2022-09-24T03:30:49.595Z,13.60
2022-09-24T03:33:16.185Z,13.44
2022-09-24T03:35:42.909Z,13.45
2022-09-24T03:38:09.543Z,13.49
2022-09-24T03:40:36.309Z,13.54
2022-09-24T03:43:02.994Z,13.55
2022-09-24T03:45:29.681Z,13.59
2022-09-24T03:47:56.336Z,13.62
2022-09-24T03:50:23.004Z,13.45
2022-09-24T03:52:49.618Z,13.50
2022-09-24T03:55:16.309Z,13.41
2022-09-24T03:57:43.080Z,13.49
2022-09-24T04:00:10.717Z,13.47
2022-09-24T04:02:37.404Z,13.40
2022-09-24T04:05:04.329Z,13.48
2022-09-24T04:07:31.614Z,13.39
2022-09-24T04:09:58.229Z,13.22
2022-09-24T04:12:24.863Z,13.23
2022-09-24T04:14:51.468Z,13.54
2022-09-24T04:17:18.090Z,13.56
2022-09-24T04:19:44.729Z,13.52
2022-09-24T04:22:11.357Z,13.40
2022-09-24T04:24:38.121Z,13.26
2022-09-24T04:27:04.832Z,13.16
2022-09-24T04:29:31.539Z,13.18
2022-09-24T04:31:58.171Z,13.24
2022-09-24T04:34:24.761Z,13.39
2022-09-24T04:36:52.036Z,13.33
2022-09-24T04:39:18.681Z,13.27
2022-09-24T04:41:47.878Z,13.21
2022-09-24T04:44:15.239Z,13.10
2022-09-24T04:46:42.901Z,13.18
2022-09-24T04:49:10.193Z,13.21
2022-09-24T04:51:36.881Z,13.36
2022-09-24T04:54:04.167Z,13.42
2022-09-24T04:56:31.568Z,13.43
2022-09-24T04:58:58.844Z,13.34
2022-09-24T05:01:26.662Z,13.27
2022-09-24T05:03:53.738Z,13.17
2022-09-24T05:06:20.398Z,13.17
2022-09-24T05:08:47.082Z,13.11
2022-09-24T05:11:13.721Z,13.10
2022-09-24T05:13:40.354Z,13.08
2022-09-24T05:16:07.111Z,13.13
2022-09-24T05:18:33.735Z,13.11
2022-09-24T05:21:00.425Z,13.25
2022-09-24T05:23:27.103Z,13.35
2022-09-24T05:26:12.290Z,13.30
2022-09-24T05:28:40.257Z,13.25
2022-09-24T05:31:08.539Z,13.25
2022-09-24T05:33:36.077Z,13.30
2022-09-24T05:36:03.557Z,13.22
2022-09-24T05:38:30.514Z,13.28
2022-09-24T05:40:57.728Z,13.40
2022-09-24T05:43:27.629Z,13.52
2022-09-24T05:45:54.678Z,13.57
2022-09-24T05:48:21.416Z,13.64
2022-09-24T05:50:48.070Z,13.54
2022-09-24T05:53:14.734Z,13.56
2022-09-24T05:55:43.011Z,13.40
2022-09-24T05:58:10.967Z,13.47
2022-09-24T06:00:38.081Z,13.44
2022-09-24T06:03:15.789Z,13.66
2022-09-24T06:05:49.718Z,13.62
2022-09-24T06:08:18.528Z,13.50
2022-09-24T06:10:47.154Z,13.48
2022-09-24T06:13:17.475Z,13.57
2022-09-24T06:15:45.040Z,13.62
2022-09-24T06:18:12.202Z,13.68
2022-09-24T06:20:38.846Z,13.80
2022-09-24T06:23:06.444Z,13.86
2022-09-24T06:25:33.165Z,13.84
2022-09-24T06:28:02.828Z,13.80
2022-09-24T06:30:35.736Z,13.73
2022-09-24T06:33:08.503Z,13.74
2022-09-24T06:35:39.841Z,13.91
2022-09-24T06:38:10.441Z,13.94
2022-09-24T06:40:37.921Z,13.98
2022-09-24T06:43:06.733Z,14.17
2022-09-24T06:45:34.341Z,14.25
2022-09-24T06:48:02.940Z,14.30
2022-09-24T06:50:31.532Z,14.24
2022-09-24T06:52:59.143Z,14.30
2022-09-24T06:55:26.351Z,14.46
2022-09-24T06:58:10.735Z,14.46
2022-09-24T07:00:39.266Z,14.39
2022-09-24T07:03:07.371Z,14.26
2022-09-24T07:05:39.554Z,14.30
2022-09-24T07:08:09.254Z,14.57
2022-09-24T07:10:36.210Z,14.57
2022-09-24T07:13:03.145Z,14.39
2022-09-24T07:15:29.695Z,14.49
2022-09-24T07:17:57.202Z,14.18
2022-09-24T07:20:28.110Z,14.23
2022-09-24T07:22:55.938Z,14.18
2022-09-24T07:25:22.874Z,14.68
2022-09-24T07:27:49.666Z,14.75
2022-09-24T07:30:16.491Z,14.61
2022-09-24T07:32:43.716Z,14.34
2022-09-24T07:35:10.386Z,14.24
2022-09-24T07:37:37.112Z,14.48
2022-09-24T07:40:03.879Z,14.40
2022-09-24T07:42:30.478Z,14.51
2022-09-24T07:44:57.116Z,14.97
2022-09-24T07:47:23.850Z,15.12
2022-09-24T07:49:50.587Z,15.27
2022-09-24T07:52:17.339Z,15.52
2022-09-24T07:54:44.959Z,15.68
2022-09-24T07:57:15.404Z,15.42
2022-09-24T07:59:44.781Z,15.12
2022-09-24T08:02:17.027Z,15.03
2022-09-24T08:04:44.582Z,15.18
2022-09-24T08:07:12.666Z,15.24
2022-09-24T08:09:39.701Z,15.35
2022-09-24T08:12:07.852Z,15.48
2022-09-24T08:14:34.913Z,15.41
2022-09-24T08:17:02.806Z,15.71
2022-09-24T08:19:30.890Z,15.74
2022-09-24T08:21:58.286Z,15.56
2022-09-24T08:24:25.950Z,15.49
2022-09-24T08:26:52.695Z,15.61
2022-09-24T08:29:19.354Z,15.66
2022-09-24T08:31:46.153Z,15.76
2022-09-24T08:34:12.862Z,15.70
2022-09-24T08:36:42.914Z,15.63
2022-09-24T08:39:10.394Z,15.72
2022-09-24T08:41:57.998Z,15.70
2022-09-24T08:44:56.401Z,15.89
2022-09-24T08:47:48.876Z,16.00
2022-09-24T08:50:22.196Z,16.01
2022-09-24T08:53:06.724Z,16.02
2022-09-24T08:55:43.065Z,16.10
2022-09-24T08:58:28.374Z,16.14
2022-09-24T09:01:14.954Z,16.06
2022-09-24T09:03:59.933Z,15.96
2022-09-24T09:06:56.153Z,15.56
2022-09-24T09:09:32.149Z,15.57
2022-09-24T09:12:04.994Z,15.56
2022-09-24T09:14:41.992Z,15.59
2022-09-24T09:17:27.415Z,15.68
2022-09-24T09:19:57.375Z,15.85
2022-09-24T09:22:29.861Z,16.20
2022-09-24T09:25:04.530Z,16.07
2022-09-24T09:27:31.446Z,15.82
2022-09-24T09:30:03.017Z,15.78
2022-09-24T09:32:56.633Z,15.91
2022-09-24T09:35:31.233Z,15.89
2022-09-24T09:38:17.107Z,15.88
2022-09-24T09:40:53.202Z,16.03
2022-09-24T09:43:20.261Z,16.09
2022-09-24T09:46:12.746Z,16.33
2022-09-24T09:48:45.284Z,16.45
2022-09-24T09:51:22.632Z,16.50
2022-09-24T09:54:08.551Z,16.50
2022-09-24T09:56:41.392Z,16.54
2022-09-24T09:59:10.992Z,16.87
2022-09-24T10:01:43.058Z,16.94
2022-09-24T10:04:35.173Z,17.17
2022-09-24T10:07:14.086Z,17.37
2022-09-24T10:09:42.775Z,17.49
2022-09-24T10:12:22.186Z,17.48
2022-09-24T10:15:27.290Z,17.33
2022-09-24T10:17:55.156Z,17.35
2022-09-24T10:20:29.274Z,17.26
2022-09-24T10:23:08.624Z,17.43
2022-09-24T10:25:36.347Z,17.66
2022-09-24T10:28:26.872Z,17.40
2022-09-24T10:30:58.715Z,17.28
2022-09-24T10:33:26.270Z,16.79
2022-09-24T10:36:08.445Z,16.76
2022-09-24T10:38:35.093Z,16.73
2022-09-24T10:41:02.014Z,16.86
2022-09-24T10:43:28.903Z,16.83
2022-09-24T10:46:10.796Z,17.03
2022-09-24T10:49:01.450Z,17.08
2022-09-24T10:51:51.447Z,17.45
2022-09-24T10:54:37.023Z,17.45
2022-09-24T10:57:18.007Z,17.38
2022-09-24T11:00:10.534Z,17.39
2022-09-24T11:03:01.735Z,17.33
2022-09-24T11:05:52.762Z,17.54
2022-09-24T11:08:26.188Z,17.65
2022-09-24T11:11:22.586Z,17.68
2022-09-24T11:13:59.380Z,17.61
2022-09-24T11:16:52.365Z,17.54
2022-09-24T11:20:09.913Z,17.35
2022-09-24T11:23:07.498Z,17.46
2022-09-24T11:25:55.341Z,17.47
2022-09-24T11:28:58.280Z,17.39
2022-09-24T11:31:30.649Z,17.44
2022-09-24T11:34:15.377Z,17.63
2022-09-24T11:37:12.671Z,17.38
2022-09-24T11:39:48.816Z,17.67
2022-09-24T11:42:21.565Z,17.84
2022-09-24T11:45:12.292Z,17.80
2022-09-24T11:48:00.690Z,17.84
2022-09-24T11:50:49.421Z,17.66
2022-09-24T11:53:40.080Z,17.69
2022-09-24T11:56:18.209Z,17.71
2022-09-24T11:59:08.899Z,17.87
2022-09-24T12:01:40.535Z,18.10
2022-09-24T12:04:13.571Z,18.29
2022-09-24T12:06:52.383Z,18.40
2022-09-24T12:09:43.525Z,18.38
2022-09-24T12:12:17.474Z,18.10
2022-09-24T12:15:05.699Z,18.23
2022-09-24T12:17:32.282Z,18.39
2022-09-24T12:20:20.332Z,18.50
2022-09-24T12:22:55.860Z,18.49
2022-09-24T12:25:22.494Z,18.40
2022-09-24T12:27:49.655Z,18.44
2022-09-24T12:30:57.982Z,18.61
2022-09-24T12:33:35.277Z,18.63
2022-09-24T12:36:10.817Z,18.69
2022-09-24T12:38:43.756Z,18.60
2022-09-24T12:41:25.325Z,18.51
2022-09-24T12:44:35.766Z,18.39
2022-09-24T12:47:02.918Z,18.39
2022-09-24T12:49:34.514Z,18.51
2022-09-24T12:52:17.076Z,18.56
2022-09-24T12:54:45.298Z,18.52
2022-09-24T12:57:25.913Z,18.66
2022-09-24T12:59:58.930Z,18.77
2022-09-24T13:02:45.147Z,18.83
2022-09-24T13:05:27.155Z,18.72
2022-09-24T13:07:59.777Z,18.75
2022-09-24T13:10:29.353Z,18.85
2022-09-24T13:12:59.901Z,18.63
2022-09-24T13:15:41.924Z,18.49
2022-09-24T13:18:08.698Z,18.43
2022-09-24T13:20:37.694Z,18.53
2022-09-24T13:23:22.560Z,18.65
2022-09-24T13:26:03.697Z,18.77
2022-09-24T13:28:48.634Z,18.84
2022-09-24T13:31:22.033Z,18.91
2022-09-24T13:34:09.492Z,19.01
2022-09-24T13:36:45.758Z,19.07
2022-09-24T13:39:35.568Z,19.07
2022-09-24T13:42:30.104Z,19.10
2022-09-24T13:45:07.473Z,19.11
2022-09-24T13:47:51.539Z,19.04
2022-09-24T13:50:28.935Z,18.91
2022-09-24T13:53:15.921Z,18.96
2022-09-24T13:55:55.565Z,18.93
2022-09-24T13:58:29.617Z,19.16
2022-09-24T14:00:58.390Z,19.09
2022-09-24T14:03:36.445Z,18.90
2022-09-24T14:06:11.785Z,18.81
2022-09-24T14:08:42.326Z,18.85
2022-09-24T14:11:24.297Z,18.93
2022-09-24T14:13:52.222Z,18.94
2022-09-24T14:16:23.923Z,18.96
2022-09-24T14:19:06.031Z,19.12
2022-09-24T14:21:39.258Z,19.34
2022-09-24T14:24:16.751Z,19.46
2022-09-24T14:26:49.494Z,19.39
2022-09-24T14:29:20.635Z,19.46
2022-09-24T14:31:52.998Z,19.60
2022-09-24T14:34:35.625Z,19.49
2022-09-24T14:37:17.328Z,19.02
2022-09-24T14:39:46.501Z,19.01
2022-09-24T14:42:23.732Z,19.02
2022-09-24T14:44:51.171Z,18.98
2022-09-24T14:47:33.006Z,19.04
2022-09-24T14:50:00.766Z,19.03
2022-09-24T14:52:37.712Z,19.07
2022-09-24T14:55:17.378Z,18.87
2022-09-24T14:57:48.565Z,18.78
2022-09-24T15:00:20.387Z,18.84
2022-09-24T15:02:57.833Z,18.73
2022-09-24T15:05:27.429Z,18.82
2022-09-24T15:08:18.542Z,18.74
2022-09-24T15:10:53.970Z,18.83
2022-09-24T15:13:24.765Z,18.79
2022-09-24T15:16:02.057Z,18.94
2022-09-24T15:18:28.977Z,18.86
2022-09-24T15:20:58.191Z,18.80
2022-09-24T15:23:24.862Z,18.90
2022-09-24T15:25:52.688Z,18.94
2022-09-24T15:28:20.935Z,18.94
2022-09-24T15:30:47.630Z,18.94
2022-09-24T15:33:14.649Z,18.98
2022-09-24T15:35:41.267Z,18.82
2022-09-24T15:38:15.048Z,18.60
2022-09-24T15:40:42.775Z,18.49
2022-09-24T15:43:18.998Z,18.36
2022-09-24T15:45:45.686Z,18.32
2022-09-24T15:48:12.402Z,18.42
2022-09-24T15:50:39.895Z,18.37
2022-09-24T15:53:07.425Z,18.52
2022-09-24T15:55:36.345Z,18.37
2022-09-24T15:58:03.081Z,18.31
2022-09-24T16:00:30.921Z,18.35
2022-09-24T16:02:58.759Z,18.35
2022-09-24T16:05:26.835Z,18.43
2022-09-24T16:07:53.628Z,18.38
2022-09-24T16:10:20.378Z,18.36
2022-09-24T16:12:47.084Z,18.57
2022-09-24T16:15:15.688Z,18.49
2022-09-24T16:17:43.278Z,18.40
2022-09-24T16:20:10.443Z,18.38
2022-09-24T16:22:37.397Z,18.35
2022-09-24T16:25:05.685Z,18.44
2022-09-24T16:27:33.765Z,18.47
2022-09-24T16:30:00.571Z,18.35
2022-09-24T16:32:27.313Z,18.32
2022-09-24T16:34:57.039Z,18.30
2022-09-24T16:37:25.199Z,18.22
2022-09-24T16:39:55.111Z,18.23
2022-09-24T16:42:22.168Z,18.06
2022-09-24T16:44:48.846Z,18.38
2022-09-24T16:47:17.555Z,18.43
2022-09-24T16:49:44.610Z,18.27
2022-09-24T16:52:11.367Z,18.08
2022-09-24T16:54:38.295Z,17.89
2022-09-24T16:57:06.267Z,17.55
2022-09-24T16:59:34.173Z,17.10
2022-09-24T17:02:01.281Z,16.98
2022-09-24T17:04:29.767Z,16.74
2022-09-24T17:06:58.011Z,16.57
2022-09-24T17:09:43.982Z,16.54
2022-09-24T17:12:13.054Z,16.21
2022-09-24T17:14:39.754Z,15.87
2022-09-24T17:17:06.977Z,15.57
2022-09-24T17:19:36.279Z,15.13
2022-09-24T17:22:04.854Z,14.70
2022-09-24T17:24:31.809Z,14.61
2022-09-24T17:26:58.562Z,14.51
2022-09-24T17:29:28.974Z,14.58
2022-09-24T17:31:57.882Z,14.63
2022-09-24T17:34:25.142Z,14.76
2022-09-24T17:36:51.950Z,14.93
2022-09-24T17:39:18.894Z,14.96
2022-09-24T17:41:45.557Z,15.06
2022-09-24T17:44:17.220Z,15.09
2022-09-24T17:46:44.292Z,15.15
2022-09-24T17:49:11.522Z,15.47
2022-09-24T17:51:38.315Z,15.40
2022-09-24T17:54:08.150Z,15.58
2022-09-24T17:56:39.171Z,15.50
2022-09-24T17:59:11.838Z,15.37
2022-09-24T18:01:40.518Z,15.25
2022-09-24T18:04:11.680Z,15.18
2022-09-24T18:06:40.052Z,15.23
2022-09-24T18:09:07.309Z,15.41
2022-09-24T18:11:41.370Z,15.38
2022-09-24T18:14:15.402Z,15.25
2022-09-24T18:16:42.497Z,15.27
2022-09-24T18:19:11.221Z,15.23
2022-09-24T18:21:37.884Z,15.25
2022-09-24T18:24:04.945Z,15.43
2022-09-24T18:26:35.001Z,15.33
2022-09-24T18:29:28.768Z,15.34
2022-09-24T18:31:56.019Z,15.44
2022-09-24T18:34:22.593Z,15.55
2022-09-24T18:36:49.157Z,15.42
2022-09-24T18:39:21.750Z,15.49
2022-09-24T18:41:52.335Z,15.64
2022-09-24T18:44:19.682Z,15.45
2022-09-24T18:46:46.588Z,15.37
2022-09-24T18:49:13.469Z,15.34
2022-09-24T18:51:40.325Z,15.38
2022-09-24T18:54:12.284Z,15.35
2022-09-24T18:56:39.182Z,15.43
2022-09-24T18:59:14.589Z,15.37
2022-09-24T19:01:42.352Z,15.49
2022-09-24T19:04:10.683Z,15.68
2022-09-24T19:06:43.215Z,15.72
2022-09-24T19:09:11.094Z,15.88
2022-09-24T19:11:37.969Z,15.83
2022-09-24T19:14:04.639Z,15.83
2022-09-24T19:16:31.889Z,15.81
2022-09-24T19:18:59.930Z,16.04
2022-09-24T19:21:27.010Z,16.22
2022-09-24T19:23:56.067Z,15.86
2022-09-24T19:26:34.191Z,15.83
2022-09-24T19:29:01.338Z,15.95
2022-09-24T19:31:36.374Z,15.64
2022-09-24T19:34:05.011Z,15.83
2022-09-24T19:36:44.282Z,15.38
2022-09-24T19:39:16.309Z,15.31
2022-09-24T19:41:43.860Z,15.11
2022-09-24T19:44:11.422Z,15.15
2022-09-24T19:46:38.837Z,15.17
2022-09-24T19:49:06.167Z,15.05
2022-09-24T19:51:35.062Z,14.89
2022-09-24T19:54:04.429Z,14.97
2022-09-24T19:56:31.774Z,15.21
2022-09-24T19:59:00.458Z,15.12
2022-09-24T20:01:32.106Z,15.08
2022-09-24T20:04:03.614Z,15.05
2022-09-24T20:06:33.523Z,14.68
2022-09-24T20:09:00.257Z,14.63
2022-09-24T20:11:27.123Z,14.66
2022-09-24T20:13:56.041Z,14.81
2022-09-24T20:16:26.208Z,14.92
2022-09-24T20:18:57.231Z,14.95
2022-09-24T20:21:27.267Z,14.85
2022-09-24T20:23:55.996Z,14.72
2022-09-24T20:26:41.265Z,14.70
2022-09-24T20:29:09.642Z,14.65
2022-09-24T20:31:38.450Z,14.90
2022-09-24T20:34:05.050Z,14.95
2022-09-24T20:36:32.552Z,14.99
2022-09-24T20:38:59.674Z,14.93
2022-09-24T20:41:26.452Z,14.91
2022-09-24T20:43:56.258Z,14.79
2022-09-24T20:46:28.503Z,14.75
2022-09-24T20:48:58.267Z,14.69
2022-09-24T20:51:27.162Z,14.88
2022-09-24T20:53:54.264Z,14.83
2022-09-24T20:56:22.004Z,14.88
2022-09-24T20:58:51.220Z,14.77
2022-09-24T21:01:19.313Z,14.69
2022-09-24T21:03:48.563Z,14.71
2022-09-24T21:06:17.103Z,14.77
2022-09-24T21:08:45.566Z,14.97
2022-09-24T21:11:20.681Z,14.93
2022-09-24T21:13:52.396Z,14.79
2022-09-24T21:16:22.237Z,14.72
2022-09-24T21:18:50.717Z,14.92
2022-09-24T21:21:20.562Z,14.81
2022-09-24T21:23:50.508Z,14.72
2022-09-24T21:26:19.664Z,14.71
2022-09-24T21:28:51.806Z,14.78
2022-09-24T21:31:24.557Z,14.71
2022-09-24T21:33:52.633Z,14.76
2022-09-24T21:36:24.238Z,14.85
2022-09-24T21:39:03.654Z,14.95
2022-09-24T21:41:36.230Z,14.92
2022-09-24T21:44:04.396Z,14.95
2022-09-24T21:46:33.533Z,14.81
2022-09-24T21:49:01.913Z,14.75
2022-09-24T21:51:30.164Z,14.79
2022-09-24T21:54:05.519Z,14.93
2022-09-24T21:56:34.971Z,14.79
2022-09-24T21:59:01.980Z,14.76
2022-09-24T22:01:33.707Z,14.72
2022-09-24T22:04:04.264Z,14.70
2022-09-24T22:06:32.744Z,14.91
2022-09-24T22:09:05.520Z,14.85
2022-09-24T22:11:32.622Z,14.89
2022-09-24T22:14:01.096Z,14.91
2022-09-24T22:16:34.017Z,14.76
2022-09-24T22:19:03.435Z,14.75
2022-09-24T22:21:31.314Z,14.73
2022-09-24T22:23:58.528Z,14.71
2022-09-24T22:26:29.626Z,14.71
2022-09-24T22:28:56.640Z,14.80
2022-09-24T22:31:24.737Z,14.77
2022-09-24T22:34:10.145Z,14.68
2022-09-24T22:36:37.046Z,14.71
2022-09-24T22:39:05.271Z,14.69
2022-09-24T22:41:34.455Z,14.70
2022-09-24T22:44:01.134Z,14.72
2022-09-24T22:46:28.040Z,14.65
2022-09-24T22:48:55.762Z,14.66
2022-09-24T22:51:24.805Z,14.76
2022-09-24T22:53:52.488Z,14.84
2022-09-24T22:56:21.798Z,14.75
2022-09-24T22:58:59.780Z,14.77
2022-09-24T23:01:38.501Z,14.60
2022-09-24T23:04:05.451Z,14.62
2022-09-24T23:06:33.829Z,14.49
2022-09-24T23:09:00.874Z,14.58
2022-09-24T23:11:30.202Z,14.61
2022-09-24T23:14:05.549Z,14.62
2022-09-24T23:16:35.371Z,14.54
2022-09-24T23:19:07.608Z,14.72
2022-09-24T23:21:35.058Z,14.61
2022-09-24T23:24:04.941Z,14.61
2022-09-24T23:26:31.800Z,14.64
2022-09-24T23:28:59.656Z,14.58
2022-09-24T23:31:29.838Z,14.53
2022-09-24T23:33:58.385Z,14.54
2022-09-24T23:36:26.367Z,14.54
2022-09-24T23:38:53.691Z,14.50
2022-09-24T23:41:21.555Z,14.49
2022-09-24T23:43:48.831Z,14.51
2022-09-24T23:46:15.775Z,14.64
2022-09-24T23:48:42.610Z,14.62
2022-09-24T23:51:09.962Z,14.64
2022-09-24T23:53:37.635Z,14.61
2022-09-24T23:56:05.761Z,14.52
2022-09-24T23:58:33.011Z,14.43
